sensor_id;sensor_type;location;lat;lon;timestamp;pressure;altitude;pressure_sealevel;temperature;humidity
53546;BME280;39432;51.902;10.844;2023-04-29T00:02:17;98999.25;;;13.78;100.00
53546;BME280;39432;51.902;10.844;2023-04-29T00:04:47;98983.00;;;13.58;100.00
53546;BME280;39432;51.902;10.844;2023-04-29T00:07:17;98983.16;;;14.09;100.00
53546;BME280;39432;51.902;10.844;2023-04-29T00:09:48;98976.72;;;14.19;100.00
53546;BME280;39432;51.902;10.844;2023-04-29T00:12:18;98967.78;;;13.65;100.00
53546;BME280;39432;51.902;10.844;2023-04-29T00:14:48;98960.25;;;13.52;100.00
53546;BME280;39432;51.902;10.844;2023-04-29T00:17:21;98976.78;;;13.71;100.00
53546;BME280;39432;51.902;10.844;2023-04-29T00:19:51;98976.44;;;13.54;100.00
53546;BME280;39432;51.902;10.844;2023-04-29T00:22:21;98985.50;;;13.78;100.00
53546;BME280;39432;51.902;10.844;2023-04-29T00:24:51;98985.78;;;13.29;100.00
53546;BME280;39432;51.902;10.844;2023-04-29T00:27:20;98998.09;;;13.36;100.00
53546;BME280;39432;51.902;10.844;2023-04-29T00:29:50;99000.94;;;13.26;100.00
53546;BME280;39432;51.902;10.844;2023-04-29T00:32:23;99012.63;;;13.08;100.00
53546;BME280;39432;51.902;10.844;2023-04-29T00:34:53;99023.78;;;13.22;100.00
53546;BME280;39432;51.902;10.844;2023-04-29T00:37:23;99021.84;;;13.17;100.00
53546;BME280;39432;51.902;10.844;2023-04-29T00:39:53;99034.31;;;13.09;100.00
53546;BME280;39432;51.902;10.844;2023-04-29T00:42:23;99042.19;;;13.16;100.00
53546;BME280;39432;51.902;10.844;2023-04-29T00:44:53;99043.19;;;12.96;100.00
53546;BME280;39432;51.902;10.844;2023-04-29T00:47:26;99057.22;;;12.95;100.00
53546;BME280;39432;51.902;10.844;2023-04-29T00:49:56;99063.09;;;13.12;100.00
53546;BME280;39432;51.902;10.844;2023-04-29T00:52:25;99061.72;;;13.14;100.00
53546;BME280;39432;51.902;10.844;2023-04-29T00:54:58;99060.50;;;12.97;100.00
53546;BME280;39432;51.902;10.844;2023-04-29T00:57:28;99073.91;;;13.03;100.00
53546;BME280;39432;51.902;10.844;2023-04-29T01:00:00;99070.97;;;12.89;100.00
53546;BME280;39432;51.902;10.844;2023-04-29T01:02:34;99074.78;;;12.93;100.00
53546;BME280;39432;51.902;10.844;2023-04-29T01:05:04;99078.63;;;12.98;100.00
53546;BME280;39432;51.902;10.844;2023-04-29T01:07:42;99085.25;;;12.91;100.00
53546;BME280;39432;51.902;10.844;2023-04-29T01:10:17;99082.53;;;12.86;100.00
53546;BME280;39432;51.902;10.844;2023-04-29T01:12:55;99094.44;;;13.11;100.00
53546;BME280;39432;51.902;10.844;2023-04-29T01:15:30;99083.59;;;12.90;100.00
53546;BME280;39432;51.902;10.844;2023-04-29T01:18:09;99086.06;;;12.92;100.00
53546;BME280;39432;51.902;10.844;2023-04-29T01:20:41;99090.56;;;12.78;100.00
53546;BME280;39432;51.902;10.844;2023-04-29T01:23:11;99085.34;;;12.76;100.00
53546;BME280;39432;51.902;10.844;2023-04-29T01:25:43;99087.03;;;12.72;100.00
53546;BME280;39432;51.902;10.844;2023-04-29T01:28:36;99083.09;;;12.83;100.00
53546;BME280;39432;51.902;10.844;2023-04-29T01:31:14;99082.66;;;12.71;100.00
53546;BME280;39432;51.902;10.844;2023-04-29T01:33:49;99083.75;;;12.70;100.00
53546;BME280;39432;51.902;10.844;2023-04-29T01:36:30;99080.22;;;12.64;100.00
53546;BME280;39432;51.902;10.844;2023-04-29T01:39:07;99074.72;;;12.64;100.00
53546;BME280;39432;51.902;10.844;2023-04-29T01:41:43;99066.66;;;12.78;100.00
53546;BME280;39432;51.902;10.844;2023-04-29T01:44:23;99066.13;;;12.76;100.00
53546;BME280;39432;51.902;10.844;2023-04-29T01:46:55;99069.41;;;12.78;100.00
53546;BME280;39432;51.902;10.844;2023-04-29T01:49:34;99061.75;;;12.75;100.00
53546;BME280;39432;51.902;10.844;2023-04-29T01:52:04;99050.75;;;12.80;100.00
53546;BME280;39432;51.902;10.844;2023-04-29T01:54:36;99057.16;;;13.00;100.00
53546;BME280;39432;51.902;10.844;2023-04-29T01:57:08;99059.75;;;12.86;100.00
53546;BME280;39432;51.902;10.844;2023-04-29T01:59:54;99057.63;;;12.78;100.00
53546;BME280;39432;51.902;10.844;2023-04-29T02:02:44;99056.00;;;12.72;100.00
53546;BME280;39432;51.902;10.844;2023-04-29T02:05:28;99056.75;;;12.82;100.00
53546;BME280;39432;51.902;10.844;2023-04-29T02:08:00;99056.31;;;12.70;100.00
53546;BME280;39432;51.902;10.844;2023-04-29T02:10:37;99060.09;;;12.74;100.00
53546;BME280;39432;51.902;10.844;2023-04-29T02:13:20;99066.00;;;12.97;100.00
53546;BME280;39432;51.902;10.844;2023-04-29T02:15:50;99064.34;;;12.96;100.00
53546;BME280;39432;51.902;10.844;2023-04-29T02:18:20;99068.13;;;13.05;100.00
53546;BME280;39432;51.902;10.844;2023-04-29T02:20:50;99069.41;;;13.12;100.00
53546;BME280;39432;51.902;10.844;2023-04-29T02:23:20;99068.59;;;13.12;100.00
53546;BME280;39432;51.902;10.844;2023-04-29T02:25:49;99072.44;;;13.11;100.00
53546;BME280;39432;51.902;10.844;2023-04-29T02:28:22;99064.84;;;13.03;100.00
53546;BME280;39432;51.902;10.844;2023-04-29T02:30:51;99065.75;;;12.93;100.00
53546;BME280;39432;51.902;10.844;2023-04-29T02:33:21;99065.66;;;12.69;100.00
53546;BME280;39432;51.902;10.844;2023-04-29T02:35:51;99070.00;;;12.75;100.00
53546;BME280;39432;51.902;10.844;2023-04-29T02:38:21;99085.50;;;12.51;100.00
53546;BME280;39432;51.902;10.844;2023-04-29T02:40:51;99087.44;;;12.50;100.00
53546;BME280;39432;51.902;10.844;2023-04-29T02:43:24;99105.81;;;12.50;100.00
53546;BME280;39432;51.902;10.844;2023-04-29T02:45:57;99113.63;;;12.27;100.00
53546;BME280;39432;51.902;10.844;2023-04-29T02:48:27;99128.16;;;12.23;100.00
53546;BME280;39432;51.902;10.844;2023-04-29T02:51:15;99120.47;;;12.25;100.00
53546;BME280;39432;51.902;10.844;2023-04-29T02:54:05;99119.44;;;12.16;100.00
53546;BME280;39432;51.902;10.844;2023-04-29T02:56:35;99133.94;;;12.16;100.00
53546;BME280;39432;51.902;10.844;2023-04-29T02:59:08;99133.38;;;12.19;100.00
53546;BME280;39432;51.902;10.844;2023-04-29T03:01:38;99136.97;;;12.15;100.00
53546;BME280;39432;51.902;10.844;2023-04-29T03:04:08;99135.06;;;12.10;100.00
53546;BME280;39432;51.902;10.844;2023-04-29T03:06:38;99143.84;;;12.02;100.00
53546;BME280;39432;51.902;10.844;2023-04-29T03:09:09;99152.66;;;11.94;100.00
53546;BME280;39432;51.902;10.844;2023-04-29T03:11:43;99151.56;;;11.95;100.00
53546;BME280;39432;51.902;10.844;2023-04-29T03:14:15;99145.28;;;11.89;100.00
53546;BME280;39432;51.902;10.844;2023-04-29T03:16:46;99149.09;;;11.98;100.00
53546;BME280;39432;51.902;10.844;2023-04-29T03:19:16;99143.34;;;11.90;100.00
53546;BME280;39432;51.902;10.844;2023-04-29T03:21:48;99147.09;;;12.14;100.00
53546;BME280;39432;51.902;10.844;2023-04-29T03:24:20;99146.38;;;11.93;100.00
53546;BME280;39432;51.902;10.844;2023-04-29T03:26:50;99146.09;;;11.90;100.00
53546;BME280;39432;51.902;10.844;2023-04-29T03:29:23;99136.25;;;11.83;100.00
53546;BME280;39432;51.902;10.844;2023-04-29T03:31:53;99152.38;;;11.90;100.00
53546;BME280;39432;51.902;10.844;2023-04-29T03:34:23;99148.03;;;11.84;100.00
53546;BME280;39432;51.902;10.844;2023-04-29T03:37:19;99151.03;;;11.72;100.00
53546;BME280;39432;51.902;10.844;2023-04-29T03:39:55;99148.56;;;11.71;100.00
53546;BME280;39432;51.902;10.844;2023-04-29T03:42:25;99151.03;;;11.77;100.00
53546;BME280;39432;51.902;10.844;2023-04-29T03:44:57;99150.50;;;11.70;100.00
53546;BME280;39432;51.902;10.844;2023-04-29T03:47:28;99146.66;;;11.66;100.00
53546;BME280;39432;51.902;10.844;2023-04-29T03:49:59;99147.19;;;11.73;100.00
53546;BME280;39432;51.902;10.844;2023-04-29T03:52:29;99156.50;;;11.72;100.00
53546;BME280;39432;51.902;10.844;2023-04-29T03:55:08;99157.06;;;11.69;100.00
53546;BME280;39432;51.902;10.844;2023-04-29T03:57:39;99149.41;;;11.61;100.00
53546;BME280;39432;51.902;10.844;2023-04-29T04:00:13;99147.78;;;11.50;100.00
53546;BME280;39432;51.902;10.844;2023-04-29T04:02:45;99162.00;;;11.62;100.00
53546;BME280;39432;51.902;10.844;2023-04-29T04:05:15;99163.63;;;11.63;100.00
53546;BME280;39432;51.902;10.844;2023-04-29T04:07:52;99162.81;;;11.63;100.00
53546;BME280;39432;51.902;10.844;2023-04-29T04:10:44;99164.22;;;11.60;100.00
53546;BME280;39432;51.902;10.844;2023-04-29T04:13:30;99173.25;;;11.55;100.00
53546;BME280;39432;51.902;10.844;2023-04-29T04:16:03;99170.78;;;11.44;100.00
53546;BME280;39432;51.902;10.844;2023-04-29T04:18:33;99169.69;;;11.50;100.00
53546;BME280;39432;51.902;10.844;2023-04-29T04:21:07;99185.56;;;11.53;100.00
53546;BME280;39432;51.902;10.844;2023-04-29T04:23:38;99188.88;;;11.55;100.00
53546;BME280;39432;51.902;10.844;2023-04-29T04:26:12;99198.72;;;11.46;100.00
53546;BME280;39432;51.902;10.844;2023-04-29T04:29:10;99202.28;;;11.46;100.00
53546;BME280;39432;51.902;10.844;2023-04-29T04:32:08;99216.50;;;11.23;100.00
53546;BME280;39432;51.902;10.844;2023-04-29T04:34:38;99230.47;;;11.37;100.00
53546;BME280;39432;51.902;10.844;2023-04-29T04:37:08;99226.91;;;11.21;100.00
53546;BME280;39432;51.902;10.844;2023-04-29T04:39:39;99246.91;;;11.26;100.00
53546;BME280;39432;51.902;10.844;2023-04-29T04:42:12;99252.88;;;11.03;100.00
53546;BME280;39432;51.902;10.844;2023-04-29T04:44:44;99266.06;;;11.16;100.00
53546;BME280;39432;51.902;10.844;2023-04-29T04:47:27;99269.31;;;11.13;100.00
53546;BME280;39432;51.902;10.844;2023-04-29T04:50:02;99277.84;;;11.22;100.00
53546;BME280;39432;51.902;10.844;2023-04-29T04:52:32;99281.94;;;11.24;100.00
53546;BME280;39432;51.902;10.844;2023-04-29T04:55:16;99295.13;;;11.32;100.00
53546;BME280;39432;51.902;10.844;2023-04-29T04:57:49;99292.09;;;11.34;100.00
53546;BME280;39432;51.902;10.844;2023-04-29T05:00:19;99296.25;;;11.52;100.00
53546;BME280;39432;51.902;10.844;2023-04-29T05:02:51;99301.16;;;11.40;100.00
53546;BME280;39432;51.902;10.844;2023-04-29T05:05:21;99313.19;;;11.28;100.00
53546;BME280;39432;51.902;10.844;2023-04-29T05:07:51;99313.72;;;11.25;100.00
53546;BME280;39432;51.902;10.844;2023-04-29T05:10:28;99324.19;;;11.44;100.00
53546;BME280;39432;51.902;10.844;2023-04-29T05:13:00;99324.72;;;11.41;100.00
53546;BME280;39432;51.902;10.844;2023-04-29T05:15:30;99326.91;;;11.39;100.00
53546;BME280;39432;51.902;10.844;2023-04-29T05:18:04;99335.97;;;11.44;100.00
53546;BME280;39432;51.902;10.844;2023-04-29T05:20:34;99332.88;;;11.25;100.00
53546;BME280;39432;51.902;10.844;2023-04-29T05:23:04;99333.41;;;11.17;100.00
53546;BME280;39432;51.902;10.844;2023-04-29T05:25:38;99334.56;;;11.26;100.00
53546;BME280;39432;51.902;10.844;2023-04-29T05:28:08;99343.25;;;11.13;100.00
53546;BME280;39432;51.902;10.844;2023-04-29T05:30:40;99344.59;;;11.05;100.00
53546;BME280;39432;51.902;10.844;2023-04-29T05:33:15;99349.19;;;10.90;100.00
53546;BME280;39432;51.902;10.844;2023-04-29T05:35:46;99361.28;;;10.99;100.00
53546;BME280;39432;51.902;10.844;2023-04-29T05:38:16;99361.81;;;11.01;100.00
53546;BME280;39432;51.902;10.844;2023-04-29T05:40:51;99362.81;;;10.85;100.00
53546;BME280;39432;51.902;10.844;2023-04-29T05:43:21;99368.56;;;10.83;100.00
53546;BME280;39432;51.902;10.844;2023-04-29T05:45:52;99359.44;;;10.67;100.00
53546;BME280;39432;51.902;10.844;2023-04-29T05:48:25;99378.59;;;10.67;100.00
53546;BME280;39432;51.902;10.844;2023-04-29T05:50:55;99375.63;;;10.74;100.00
53546;BME280;39432;51.902;10.844;2023-04-29T05:53:25;99382.97;;;10.68;100.00
53546;BME280;39432;51.902;10.844;2023-04-29T05:55:55;99385.16;;;10.66;100.00
53546;BME280;39432;51.902;10.844;2023-04-29T05:58:25;99392.84;;;10.69;100.00
53546;BME280;39432;51.902;10.844;2023-04-29T06:00:55;99388.69;;;10.62;100.00
53546;BME280;39432;51.902;10.844;2023-04-29T06:03:29;99397.63;;;10.52;100.00
53546;BME280;39432;51.902;10.844;2023-04-29T06:06:21;99406.91;;;10.46;100.00
53546;BME280;39432;51.902;10.844;2023-04-29T06:09:10;99400.16;;;10.59;100.00
53546;BME280;39432;51.902;10.844;2023-04-29T06:11:53;99408.69;;;10.67;100.00
53546;BME280;39432;51.902;10.844;2023-04-29T06:14:23;99410.34;;;10.68;100.00
53546;BME280;39432;51.902;10.844;2023-04-29T06:16:53;99414.28;;;10.88;100.00
53546;BME280;39432;51.902;10.844;2023-04-29T06:19:26;99409.31;;;10.79;100.00
53546;BME280;39432;51.902;10.844;2023-04-29T06:21:58;99414.91;;;10.58;100.00
53546;BME280;39432;51.902;10.844;2023-04-29T06:24:29;99420.31;;;10.85;100.00
53546;BME280;39432;51.902;10.844;2023-04-29T06:27:01;99417.53;;;10.79;100.00
53546;BME280;39432;51.902;10.844;2023-04-29T06:29:31;99413.50;;;10.50;100.00
53546;BME280;39432;51.902;10.844;2023-04-29T06:32:01;99415.19;;;10.56;100.00
53546;BME280;39432;51.902;10.844;2023-04-29T06:34:34;99427.19;;;10.50;100.00
53546;BME280;39432;51.902;10.844;2023-04-29T06:37:23;99420.50;;;10.73;100.00
53546;BME280;39432;51.902;10.844;2023-04-29T06:40:07;99422.84;;;10.59;100.00
53546;BME280;39432;51.902;10.844;2023-04-29T06:42:53;99424.03;;;10.68;100.00
53546;BME280;39432;51.902;10.844;2023-04-29T06:45:50;99422.34;;;10.62;100.00
53546;BME280;39432;51.902;10.844;2023-04-29T06:48:40;99425.06;;;10.62;100.00
53546;BME280;39432;51.902;10.844;2023-04-29T06:51:12;99428.88;;;10.56;100.00
53546;BME280;39432;51.902;10.844;2023-04-29T06:53:43;99440.25;;;10.80;100.00
53546;BME280;39432;51.902;10.844;2023-04-29T06:56:12;99440.78;;;10.77;100.00
53546;BME280;39432;51.902;10.844;2023-04-29T06:58:43;99455.59;;;10.49;100.00
53546;BME280;39432;51.902;10.844;2023-04-29T07:01:13;99453.44;;;10.51;100.00
53546;BME280;39432;51.902;10.844;2023-04-29T07:03:43;99454.44;;;10.40;100.00
53546;BME280;39432;51.902;10.844;2023-04-29T07:06:16;99471.41;;;10.42;100.00
53546;BME280;39432;51.902;10.844;2023-04-29T07:08:46;99476.28;;;10.35;100.00
53546;BME280;39432;51.902;10.844;2023-04-29T07:11:16;99484.09;;;10.26;100.00
53546;BME280;39432;51.902;10.844;2023-04-29T07:13:45;99490.06;;;10.23;100.00
53546;BME280;39432;51.902;10.844;2023-04-29T07:16:16;99499.56;;;10.42;100.00
53546;BME280;39432;51.902;10.844;2023-04-29T07:18:47;99505.81;;;10.38;100.00
53546;BME280;39432;51.902;10.844;2023-04-29T07:21:20;99513.63;;;10.51;100.00
53546;BME280;39432;51.902;10.844;2023-04-29T07:23:50;99513.66;;;10.56;100.00
53546;BME280;39432;51.902;10.844;2023-04-29T07:26:21;99515.25;;;10.52;100.00
53546;BME280;39432;51.902;10.844;2023-04-29T07:28:51;99522.97;;;10.60;100.00
53546;BME280;39432;51.902;10.844;2023-04-29T07:31:23;99531.56;;;10.69;100.00
53546;BME280;39432;51.902;10.844;2023-04-29T07:33:53;99528.34;;;10.23;100.00
53546;BME280;39432;51.902;10.844;2023-04-29T07:36:26;99544.44;;;10.19;100.00
53546;BME280;39432;51.902;10.844;2023-04-29T07:38:57;99547.72;;;10.21;100.00
53546;BME280;39432;51.902;10.844;2023-04-29T07:41:27;99553.94;;;10.12;100.00
53546;BME280;39432;51.902;10.844;2023-04-29T07:43:57;99562.28;;;10.00;100.00
53546;BME280;39432;51.902;10.844;2023-04-29T07:46:27;99562.28;;;10.00;100.00
53546;BME280;39432;51.902;10.844;2023-04-29T07:48:59;99577.38;;;10.08;100.00
53546;BME280;39432;51.902;10.844;2023-04-29T07:51:33;99590.03;;;10.14;100.00
53546;BME280;39432;51.902;10.844;2023-04-29T07:54:03;99597.22;;;9.98;100.00
53546;BME280;39432;51.902;10.844;2023-04-29T07:56:33;99597.59;;;9.85;100.00
53546;BME280;39432;51.902;10.844;2023-04-29T07:59:03;99606.34;;;9.87;100.00
53546;BME280;39432;51.902;10.844;2023-04-29T08:01:32;99621.44;;;9.89;100.00
53546;BME280;39432;51.902;10.844;2023-04-29T08:04:02;99631.94;;;10.19;100.00
53546;BME280;39432;51.902;10.844;2023-04-29T08:06:43;99630.19;;;9.91;100.00
53546;BME280;39432;51.902;10.844;2023-04-29T08:09:13;99632.38;;;9.89;100.00
53546;BME280;39432;51.902;10.844;2023-04-29T08:11:43;99639.16;;;9.87;100.00
53546;BME280;39432;51.902;10.844;2023-04-29T08:14:13;99641.13;;;9.91;100.00
53546;BME280;39432;51.902;10.844;2023-04-29T08:16:43;99647.19;;;10.15;100.00
53546;BME280;39432;51.902;10.844;2023-04-29T08:19:12;99647.19;;;10.15;100.00
53546;BME280;39432;51.902;10.844;2023-04-29T08:21:45;99643.34;;;10.33;100.00
53546;BME280;39432;51.902;10.844;2023-04-29T08:24:14;99638.25;;;10.42;100.00
53546;BME280;39432;51.902;10.844;2023-04-29T08:26:44;99631.88;;;10.36;100.00
53546;BME280;39432;51.902;10.844;2023-04-29T08:29:14;99637.59;;;10.57;100.00
53546;BME280;39432;51.902;10.844;2023-04-29T08:31:44;99627.47;;;10.57;100.00
53546;BME280;39432;51.902;10.844;2023-04-29T08:34:14;99626.69;;;10.35;100.00
53546;BME280;39432;51.902;10.844;2023-04-29T08:36:47;99631.09;;;10.19;100.00
53546;BME280;39432;51.902;10.844;2023-04-29T08:39:16;99631.56;;;10.33;100.00
53546;BME280;39432;51.902;10.844;2023-04-29T08:41:46;99639.56;;;10.61;100.00
53546;BME280;39432;51.902;10.844;2023-04-29T08:44:17;99628.25;;;10.52;100.00
53546;BME280;39432;51.902;10.844;2023-04-29T08:46:47;99634.22;;;10.71;100.00
53546;BME280;39432;51.902;10.844;2023-04-29T08:49:17;99634.16;;;10.66;100.00
53546;BME280;39432;51.902;10.844;2023-04-29T08:51:50;99625.34;;;10.64;100.00
53546;BME280;39432;51.902;10.844;2023-04-29T08:54:20;99621.72;;;10.32;100.00
53546;BME280;39432;51.902;10.844;2023-04-29T08:56:50;99622.72;;;10.47;100.00
53546;BME280;39432;51.902;10.844;2023-04-29T08:59:21;99618.00;;;10.43;100.00
53546;BME280;39432;51.902;10.844;2023-04-29T09:01:52;99632.75;;;10.64;100.00
53546;BME280;39432;51.902;10.844;2023-04-29T09:04:29;99632.22;;;10.40;100.00
53546;BME280;39432;51.902;10.844;2023-04-29T09:07:06;99629.44;;;10.62;100.00
53546;BME280;39432;51.902;10.844;2023-04-29T09:09:36;99629.84;;;10.75;100.00
53546;BME280;39432;51.902;10.844;2023-04-29T09:12:08;99624.31;;;10.70;100.00
53546;BME280;39432;51.902;10.844;2023-04-29T09:14:38;99629.44;;;10.89;100.00
53546;BME280;39432;51.902;10.844;2023-04-29T09:17:07;99624.75;;;11.53;100.00
53546;BME280;39432;51.902;10.844;2023-04-29T09:19:37;99612.13;;;11.84;100.00
53546;BME280;39432;51.902;10.844;2023-04-29T09:22:09;99599.63;;;11.61;100.00
53546;BME280;39432;51.902;10.844;2023-04-29T09:24:39;99588.69;;;12.19;100.00
53546;BME280;39432;51.902;10.844;2023-04-29T09:27:25;99588.47;;;12.31;100.00
53546;BME280;39432;51.902;10.844;2023-04-29T09:29:59;99577.38;;;12.00;100.00
53546;BME280;39432;51.902;10.844;2023-04-29T09:32:29;99583.28;;;12.39;100.00
53546;BME280;39432;51.902;10.844;2023-04-29T09:35:20;99576.16;;;12.44;100.00
53546;BME280;39432;51.902;10.844;2023-04-29T09:38:07;99580.44;;;12.09;100.00
53546;BME280;39432;51.902;10.844;2023-04-29T09:40:38;99581.69;;;12.59;100.00
53546;BME280;39432;51.902;10.844;2023-04-29T09:43:24;99574.53;;;12.48;100.00
53546;BME280;39432;51.902;10.844;2023-04-29T09:45:54;99569.63;;;12.96;100.00
53546;BME280;39432;51.902;10.844;2023-04-29T09:48:29;99557.53;;;12.61;100.00
53546;BME280;39432;51.902;10.844;2023-04-29T09:51:01;99555.34;;;12.83;100.00
53546;BME280;39432;51.902;10.844;2023-04-29T09:53:34;99557.03;;;13.25;100.00
53546;BME280;39432;51.902;10.844;2023-04-29T09:56:05;99556.97;;;12.74;100.00
53546;BME280;39432;51.902;10.844;2023-04-29T09:58:35;99552.03;;;13.12;100.00
53546;BME280;39432;51.902;10.844;2023-04-29T10:01:06;99552.00;;;13.63;100.00
53546;BME280;39432;51.902;10.844;2023-04-29T10:03:40;99546.25;;;13.49;100.00
53546;BME280;39432;51.902;10.844;2023-04-29T10:06:11;99540.78;;;13.18;100.00
53546;BME280;39432;51.902;10.844;2023-04-29T10:08:45;99539.97;;;13.28;100.00
53546;BME280;39432;51.902;10.844;2023-04-29T10:11:16;99537.19;;;13.43;100.00
53546;BME280;39432;51.902;10.844;2023-04-29T10:13:47;99547.00;;;13.80;100.00
53546;BME280;39432;51.902;10.844;2023-04-29T10:16:27;99546.53;;;13.53;100.00
53546;BME280;39432;51.902;10.844;2023-04-29T10:19:01;99542.00;;;13.92;100.00
53546;BME280;39432;51.902;10.844;2023-04-29T10:21:33;99538.84;;;13.44;100.00
53546;BME280;39432;51.902;10.844;2023-04-29T10:24:06;99538.06;;;13.13;100.00
53546;BME280;39432;51.902;10.844;2023-04-29T10:26:40;99551.78;;;13.18;100.00
53546;BME280;39432;51.902;10.844;2023-04-29T10:29:12;99551.53;;;13.25;100.00
53546;BME280;39432;51.902;10.844;2023-04-29T10:31:42;99566.88;;;13.11;100.00
53546;BME280;39432;51.902;10.844;2023-04-29T10:34:16;99565.53;;;12.93;100.00
53546;BME280;39432;51.902;10.844;2023-04-29T10:36:46;99574.75;;;12.31;100.00
53546;BME280;39432;51.902;10.844;2023-04-29T10:39:28;99583.81;;;12.36;100.00
53546;BME280;39432;51.902;10.844;2023-04-29T10:42:04;99585.09;;;12.13;100.00
53546;BME280;39432;51.902;10.844;2023-04-29T10:48:11;99594.00;;;12.56;100.00
53546;BME280;39432;51.902;10.844;2023-04-29T10:51:05;99578.97;;;13.05;100.00
53546;BME280;39432;51.902;10.844;2023-04-29T10:53:36;99578.97;;;13.15;100.00
53546;BME280;39432;51.902;10.844;2023-04-29T10:56:37;99585.19;;;13.87;100.00
53546;BME280;39432;51.902;10.844;2023-04-29T10:59:11;99569.06;;;14.35;100.00
53546;BME280;39432;51.902;10.844;2023-04-29T11:01:49;99570.66;;;14.90;100.00
53546;BME280;39432;51.902;10.844;2023-04-29T11:04:20;99565.19;;;14.85;100.00
53546;BME280;39432;51.902;10.844;2023-04-29T11:06:52;99558.88;;;14.80;100.00
53546;BME280;39432;51.902;10.844;2023-04-29T11:09:25;99562.88;;;14.04;100.00
53546;BME280;39432;51.902;10.844;2023-04-29T11:11:59;99558.81;;;14.45;100.00
53546;BME280;39432;51.902;10.844;2023-04-29T11:14:31;99561.09;;;14.28;100.00
53546;BME280;39432;51.902;10.844;2023-04-29T11:17:04;99555.78;;;14.47;100.00
53546;BME280;39432;51.902;10.844;2023-04-29T11:19:40;99556.69;;;14.27;100.00
53546;BME280;39432;51.902;10.844;2023-04-29T11:22:24;99565.00;;;14.12;100.00
53546;BME280;39432;51.902;10.844;2023-04-29T11:24:55;99555.56;;;14.33;100.00
53546;BME280;39432;51.902;10.844;2023-04-29T11:27:30;99561.41;;;14.71;100.00
53546;BME280;39432;51.902;10.844;2023-04-29T11:30:01;99555.25;;;15.18;100.00
53546;BME280;39432;51.902;10.844;2023-04-29T11:32:36;99556.34;;;15.22;100.00
53546;BME280;39432;51.902;10.844;2023-04-29T11:35:07;99558.63;;;14.76;100.00
53546;BME280;39432;51.902;10.844;2023-04-29T11:37:38;99565.94;;;14.57;100.00
53546;BME280;39432;51.902;10.844;2023-04-29T11:40:10;99573.56;;;14.65;100.00
53546;BME280;39432;51.902;10.844;2023-04-29T11:42:43;99567.31;;;14.93;100.00
53546;BME280;39432;51.902;10.844;2023-04-29T11:45:16;99570.38;;;15.21;100.00
53546;BME280;39432;51.902;10.844;2023-04-29T11:47:47;99573.53;;;14.70;100.00
53546;BME280;39432;51.902;10.844;2023-04-29T11:50:21;99572.44;;;14.71;100.00
53546;BME280;39432;51.902;10.844;2023-04-29T11:52:50;99577.88;;;14.81;100.00
53546;BME280;39432;51.902;10.844;2023-04-29T11:55:20;99577.88;;;14.81;100.00
53546;BME280;39432;51.902;10.844;2023-04-29T11:57:52;99574.59;;;14.79;100.00
53546;BME280;39432;51.902;10.844;2023-04-29T12:00:23;99578.25;;;14.10;100.00
53546;BME280;39432;51.902;10.844;2023-04-29T12:02:53;99585.84;;;14.28;100.00
53546;BME280;39432;51.902;10.844;2023-04-29T12:05:24;99588.69;;;14.13;100.00
53546;BME280;39432;51.902;10.844;2023-04-29T12:07:54;99592.56;;;14.07;100.00
53546;BME280;39432;51.902;10.844;2023-04-29T12:10:24;99590.34;;;14.14;100.00
53546;BME280;39432;51.902;10.844;2023-04-29T12:12:56;99591.94;;;14.25;100.00
53546;BME280;39432;51.902;10.844;2023-04-29T12:15:27;99591.94;;;14.25;100.00
53546;BME280;39432;51.902;10.844;2023-04-29T12:17:59;99593.84;;;14.30;100.00
53546;BME280;39432;51.902;10.844;2023-04-29T12:20:29;99596.19;;;13.97;100.00
53546;BME280;39432;51.902;10.844;2023-04-29T12:23:10;99590.16;;;14.55;100.00
53546;BME280;39432;51.902;10.844;2023-04-29T12:25:40;99597.97;;;14.27;100.00
53546;BME280;39432;51.902;10.844;2023-04-29T12:28:14;99588.91;;;14.27;100.00
53546;BME280;39432;51.902;10.844;2023-04-29T12:30:44;99591.31;;;14.38;100.00
53546;BME280;39432;51.902;10.844;2023-04-29T12:33:21;99590.13;;;14.60;100.00
53546;BME280;39432;51.902;10.844;2023-04-29T12:35:54;99591.56;;;14.52;100.00
53546;BME280;39432;51.902;10.844;2023-04-29T12:38:26;99593.81;;;14.40;100.00
53546;BME280;39432;51.902;10.844;2023-04-29T12:40:58;99591.44;;;14.72;100.00
53546;BME280;39432;51.902;10.844;2023-04-29T12:43:32;99600.91;;;14.95;100.00
53546;BME280;39432;51.902;10.844;2023-04-29T12:46:03;99599.31;;;15.23;100.00
53546;BME280;39432;51.902;10.844;2023-04-29T12:48:34;99594.34;;;15.25;100.00
53546;BME280;39432;51.902;10.844;2023-04-29T12:51:07;99593.34;;;15.45;100.00
53546;BME280;39432;51.902;10.844;2023-04-29T12:53:38;99591.81;;;15.58;100.00
53546;BME280;39432;51.902;10.844;2023-04-29T12:56:07;99595.09;;;15.02;100.00
53546;BME280;39432;51.902;10.844;2023-04-29T12:58:40;99596.72;;;15.37;100.00
53546;BME280;39432;51.902;10.844;2023-04-29T13:01:10;99598.94;;;15.35;100.00
53546;BME280;39432;51.902;10.844;2023-04-29T13:03:44;99603.00;;;15.09;100.00
53546;BME280;39432;51.902;10.844;2023-04-29T13:06:15;99601.41;;;15.02;100.00
53546;BME280;39432;51.902;10.844;2023-04-29T13:08:46;99610.00;;;14.46;100.00
53546;BME280;39432;51.902;10.844;2023-04-29T13:11:18;99616.25;;;14.03;100.00
53546;BME280;39432;51.902;10.844;2023-04-29T13:13:50;99617.25;;;14.27;100.00
53546;BME280;39432;51.902;10.844;2023-04-29T13:16:20;99611.28;;;14.00;100.00